Time;durP1;ratioP1;P1;durP2;ratioP2;P2;SDS_P1;SDS_P2;PMS_P1;PMS_P2;Temp;Humidity;BMP_temperature;BMP_pressure;BME280_temperature;BME280_humidity;BME280_pressure;Samples;Min_cycle;Max_cycle;Signal;HPM_P1;HPM_P2
2021/03/02 00:01:47;;;;;;;5.10;4.60;;;21.70;18.60;;;;;;5033233;28;20171;-59
2021/03/02 00:04:12;;;;;;;5.57;4.97;;;21.70;18.70;;;;;;5033048;28;20148;-58
2021/03/02 00:06:38;;;;;;;4.77;4.37;;;21.70;18.70;;;;;;5033112;28;20637;-60
2021/03/02 00:09:06;;;;;;;4.70;4.30;;;21.70;18.60;;;;;;5032640;28;20218;-58
2021/03/02 00:11:35;;;;;;;4.63;4.22;;;21.70;18.70;;;;;;5033193;28;20407;-59
2021/03/02 00:14:01;;;;;;;5.30;4.80;;;21.60;18.60;;;;;;5033076;28;20164;-59
2021/03/02 00:16:27;;;;;;;5.07;4.57;;;21.70;18.70;;;;;;5033015;28;20226;-59
2021/03/02 00:19:05;;;;;;;5.43;4.93;;;21.60;18.60;;;;;;5033090;28;20168;-60
2021/03/02 00:21:34;;;;;;;4.18;3.85;;;21.60;18.60;;;;;;5033125;28;20194;-59
2021/03/02 00:24:03;;;;;;;5.07;4.65;;;21.60;18.70;;;;;;5032620;28;20595;-58
2021/03/02 00:26:32;;;;;;;5.45;4.95;;;21.60;18.70;;;;;;5033062;28;20210;-58
2021/03/02 00:29:03;;;;;;;5.90;5.07;;;21.60;18.70;;;;;;5032985;28;20195;-59
2021/03/02 00:31:32;;;;;;;5.70;5.20;;;21.60;18.70;;;;;;5032899;28;20188;-60
2021/03/02 00:33:58;;;;;;;4.78;4.38;;;21.60;18.70;;;;;;5033047;28;20531;-59
2021/03/02 00:36:26;;;;;;;6.37;5.83;;;21.60;18.70;;;;;;5032917;28;20651;-59
2021/03/02 00:38:52;;;;;;;5.13;4.68;;;21.60;18.70;;;;;;5032542;28;20394;-59
2021/03/02 00:41:18;;;;;;;4.90;4.40;;;21.60;18.70;;;;;;5036315;28;20629;-59
2021/03/02 00:43:46;;;;;;;5.43;4.93;;;21.60;18.70;;;;;;5036433;28;20715;-58
2021/03/02 00:46:12;;;;;;;5.10;4.60;;;21.60;18.70;;;;;;5018850;28;20171;-59
2021/03/02 00:48:40;;;;;;;6.17;5.63;;;21.50;18.70;;;;;;5036135;28;20183;-59
2021/03/02 00:51:08;;;;;;;4.90;4.38;;;21.60;18.80;;;;;;5036465;28;20642;-60
2021/03/02 00:53:34;;;;;;;4.70;4.30;;;21.60;18.70;;;;;;5035730;28;20168;-59
2021/03/02 00:55:59;;;;;;;5.60;4.53;;;21.60;18.80;;;;;;5036410;28;20237;-59
2021/03/02 00:58:28;;;;;;;4.63;4.23;;;21.50;18.70;;;;;;5036195;28;20615;-59
2021/03/02 01:00:54;;;;;;;5.22;4.72;;;21.50;18.70;;;;;;5036216;28;20164;-59
2021/03/02 01:03:20;;;;;;;4.43;4.03;;;21.50;18.70;;;;;;5036036;28;20196;-59
2021/03/02 01:05:45;;;;;;;5.07;4.57;;;21.50;19.30;;;;;;5018552;28;20210;-60
2021/03/02 01:08:11;;;;;;;4.83;4.43;;;21.50;18.70;;;;;;5035721;28;20159;-60
2021/03/02 01:10:37;;;;;;;4.80;4.40;;;21.50;18.70;;;;;;5035993;28;20251;-59
2021/03/02 01:13:02;;;;;;;5.67;5.00;;;21.50;18.80;;;;;;5035979;28;20414;-59
2021/03/02 01:15:28;;;;;;;4.10;3.80;;;21.50;18.80;;;;;;5035887;28;20234;-59
2021/03/02 01:17:54;;;;;;;4.40;4.00;;;21.50;18.80;;;;;;5035668;28;20167;-58
2021/03/02 01:20:19;;;;;;;4.97;4.40;;;21.50;18.80;;;;;;5036117;28;20243;-59
2021/03/02 01:22:47;;;;;;;5.47;5.07;;;21.50;19.30;;;;;;5018008;28;20184;-58
2021/03/02 01:25:16;;;;;;;5.10;4.65;;;21.50;18.80;;;;;;5035053;28;20621;-58
2021/03/02 01:27:44;;;;;;;6.60;5.15;;;21.50;18.80;;;;;;5035624;28;20167;-58
2021/03/02 01:30:12;;;;;;;4.93;4.50;;;21.50;18.80;;;;;;5035687;28;20183;-58
2021/03/02 01:32:40;;;;;;;5.22;4.72;;;21.50;18.80;;;;;;5035368;28;20178;-58
2021/03/02 01:35:08;;;;;;;4.60;4.20;;;21.40;18.80;;;;;;5035331;28;20196;-58
2021/03/02 01:37:34;;;;;;;4.72;4.30;;;21.40;18.80;;;;;;5035371;28;20167;-58
2021/03/02 01:40:02;;;;;;;5.00;4.57;;;21.40;18.80;;;;;;5034985;28;20155;-59
2021/03/02 01:42:28;;;;;;;4.80;4.40;;;21.40;18.80;;;;;;5035345;28;20152;-58
2021/03/02 01:44:54;;;;;;;6.00;5.27;;;21.40;18.80;;;;;;5035153;28;20198;-58
2021/03/02 01:47:19;;;;;;;4.67;4.27;;;21.40;18.80;;;;;;5035016;28;20631;-58
2021/03/02 01:49:45;;;;;;;4.67;4.27;;;21.40;18.80;;;;;;5035124;28;20164;-58
2021/03/02 01:52:11;;;;;;;4.90;4.50;;;21.40;18.80;;;;;;5034779;28;20192;-59
2021/03/02 01:54:37;;;;;;;6.27;4.40;;;21.40;18.80;;;;;;5034459;28;20160;-59
2021/03/02 01:57:03;;;;;;;5.18;4.68;;;21.40;18.80;;;;;;5035109;28;20508;-59
2021/03/02 01:59:30;;;;;;;4.43;3.95;;;21.40;18.80;;;;;;5035334;28;20184;-59
2021/03/02 02:01:59;;;;;;;4.78;4.38;;;21.40;18.80;;;;;;5035112;28;20586;-59
2021/03/02 02:04:37;;;;;;;4.10;3.80;;;21.40;18.80;;;;;;5034872;28;20151;-59
2021/03/02 02:07:11;;;;;;;5.13;4.63;;;21.40;18.80;;;;;;5035163;28;20171;-59
2021/03/02 02:09:56;;;;;;;4.22;3.92;;;21.40;18.80;;;;;;5034368;28;20162;-59
2021/03/02 02:12:44;;;;;;;5.35;4.85;;;21.40;18.80;;;;;;5034806;28;20159;-60
2021/03/02 02:15:13;;;;;;;5.18;4.75;;;21.40;18.80;;;;;;5034473;28;20310;-57
2021/03/02 02:17:55;;;;;;;5.15;4.65;;;21.40;18.80;;;;;;5034791;28;20164;-58
2021/03/02 02:20:29;;;;;;;4.72;4.30;;;21.40;18.90;;;;;;5034711;28;20151;-58
2021/03/02 02:23:14;;;;;;;4.10;3.65;;;21.40;18.90;;;;;;5034586;28;20189;-59
2021/03/02 02:25:58;;;;;;;4.82;4.07;;;21.30;18.80;;;;;;5034615;28;20171;-59
2021/03/02 02:28:32;;;;;;;4.88;4.45;;;21.30;18.80;;;;;;5034361;28;20155;-58
2021/03/02 02:30:59;;;;;;;5.32;4.55;;;21.30;18.80;;;;;;5034607;28;20174;-59
2021/03/02 02:33:32;;;;;;;4.85;4.45;;;21.30;18.80;;;;;;5034339;28;20168;-59
2021/03/02 02:36:00;;;;;;;4.20;3.80;;;21.30;18.80;;;;;;5034584;28;20196;-59
2021/03/02 02:38:28;;;;;;;4.43;4.03;;;21.30;18.80;;;;;;5033842;28;20250;-58
2021/03/02 02:40:55;;;;;;;4.40;4.00;;;21.30;18.90;;;;;;5034311;28;20148;-59
2021/03/02 02:43:21;;;;;;;4.20;3.90;;;21.30;18.90;;;;;;5033952;28;20288;-59
2021/03/02 02:45:49;;;;;;;4.90;4.50;;;21.30;18.90;;;;;;5034209;28;20167;-59
2021/03/02 02:48:15;;;;;;;4.50;4.10;;;;;;;;;;5016278;28;20277;-59
2021/03/02 02:50:42;;;;;;;4.60;4.20;;;21.30;18.40;;;;;;5034165;28;20166;-59
2021/03/02 02:53:11;;;;;;;4.80;4.40;;;21.30;18.90;;;;;;5015696;28;20178;-59
2021/03/02 02:55:49;;;;;;;4.32;3.92;;;21.20;18.90;;;;;;5033989;28;20577;-59
2021/03/02 02:58:18;;;;;;;4.30;3.90;;;21.30;18.90;;;;;;5034128;28;20627;-59
2021/03/02 03:00:47;;;;;;;4.40;4.00;;;21.30;18.90;;;;;;5034094;28;20286;-59
2021/03/02 03:03:19;;;;;;;3.55;3.25;;;21.20;18.80;;;;;;5033068;28;20156;-60
2021/03/02 03:05:50;;;;;;;4.30;3.90;;;21.20;18.80;;;;;;5034027;28;20254;-60
2021/03/02 03:08:24;;;;;;;4.35;3.95;;;21.20;18.90;;;;;;5033268;28;20200;-58
2021/03/02 03:10:52;;;;;;;4.15;3.75;;;21.20;18.90;;;;;;5033785;28;20148;-58
2021/03/02 03:13:19;;;;;;;5.05;4.47;;;21.20;18.80;;;;;;5033598;28;20913;-57
2021/03/02 03:15:51;;;;;;;4.40;4.00;;;21.20;18.80;;;;;;5033605;28;20227;-58
2021/03/02 03:18:22;;;;;;;4.82;4.30;;;21.20;18.90;;;;;;5033453;28;20160;-58
2021/03/02 03:20:51;;;;;;;4.40;3.97;;;21.20;18.90;;;;;;5016031;28;20183;-58
2021/03/02 03:23:19;;;;;;;3.80;3.47;;;21.20;18.90;;;;;;5032913;28;20286;-58
2021/03/02 03:25:47;;;;;;;5.15;4.32;;;21.20;18.90;;;;;;5033660;28;20168;-58
2021/03/02 03:28:15;;;;;;;4.20;3.83;;;21.20;18.90;;;;;;5033444;28;20168;-58
2021/03/02 03:30:42;;;;;;;4.68;4.28;;;21.20;19.40;;;;;;5033565;28;20178;-59
2021/03/02 03:33:11;;;;;;;5.15;4.55;;;21.20;18.90;;;;;;5033481;28;20559;-59
2021/03/02 03:35:39;;;;;;;3.85;3.55;;;21.20;18.90;;;;;;5033596;28;20270;-59
2021/03/02 03:38:05;;;;;;;3.95;3.65;;;21.20;18.90;;;;;;5032998;28;20584;-59
2021/03/02 03:40:31;;;;;;;3.95;3.65;;;21.20;18.90;;;;;;5033621;28;20170;-58
2021/03/02 03:42:56;;;;;;;4.30;3.90;;;21.20;18.90;;;;;;5033258;28;20507;-58
2021/03/02 03:45:22;;;;;;;4.27;3.87;;;21.20;18.90;;;;;;5033481;28;20388;-58
2021/03/02 03:47:48;;;;;;;4.03;3.70;;;21.20;18.90;;;;;;5033318;28;20186;-58
2021/03/02 03:50:14;;;;;;;4.43;4.13;;;21.20;18.90;;;;;;5033361;28;20202;-58
2021/03/02 03:52:44;;;;;;;4.45;3.92;;;21.20;18.90;;;;;;5033565;28;20449;-59
2021/03/02 03:55:11;;;;;;;4.18;3.78;;;21.20;19.00;;;;;;5032874;28;20187;-59
2021/03/02 03:57:39;;;;;;;4.70;4.28;;;21.20;18.90;;;;;;5033117;28;20176;-59
2021/03/02 04:00:06;;;;;;;3.75;3.45;;;21.10;18.90;;;;;;5033332;28;20240;-59
2021/03/02 04:02:35;;;;;;;3.85;3.50;;;21.10;18.90;;;;;;5033252;28;20214;-59
2021/03/02 04:05:06;;;;;;;4.78;3.90;;;21.10;18.90;;;;;;5033221;28;20511;-58
2021/03/02 04:07:36;;;;;;;4.55;4.15;;;21.10;18.90;;;;;;5033154;28;20152;-59
2021/03/02 04:10:06;;;;;;;3.28;2.97;;;21.10;18.90;;;;;;5032678;28;20670;-59
2021/03/02 04:12:44;;;;;;;3.90;3.50;;;21.10;18.90;;;;;;5033148;28;20255;-59
2021/03/02 04:15:14;;;;;;;4.45;4.05;;;21.10;18.90;;;;;;5035937;28;20257;-59
2021/03/02 04:17:48;;;;;;;4.00;3.58;;;21.10;18.90;;;;;;5019268;28;20562;-58
2021/03/02 04:20:14;;;;;;;4.60;4.20;;;21.10;18.90;;;;;;5036945;28;20155;-60
2021/03/02 04:22:45;;;;;;;3.37;3.07;;;21.10;18.90;;;;;;5036847;28;20170;-59
2021/03/02 04:25:11;;;;;;;3.70;3.40;;;21.10;18.90;;;;;;5036181;28;20381;-58
2021/03/02 04:27:37;;;;;;;4.45;4.05;;;21.10;18.90;;;;;;5036662;28;20163;-58
2021/03/02 04:30:04;;;;;;;3.90;3.60;;;21.10;18.90;;;;;;5036670;28;20148;-58
2021/03/02 04:32:29;;;;;;;4.30;3.90;;;21.10;18.90;;;;;;5036622;28;20411;-59
2021/03/02 04:34:55;;;;;;;4.40;4.00;;;21.10;19.10;;;;;;5036595;28;20543;-59
2021/03/02 04:37:20;;;;;;;4.07;3.70;;;21.10;18.90;;;;;;5036596;28;20209;-59
2021/03/02 04:39:46;;;;;;;4.13;3.83;;;21.10;19.00;;;;;;5036237;28;20349;-58
2021/03/02 04:42:12;;;;;;;4.13;3.60;;;21.10;19.00;;;;;;5036669;28;20274;-59
2021/03/02 04:44:37;;;;;;;4.53;4.20;;;21.00;18.90;;;;;;5036815;28;20611;-59
2021/03/02 04:47:03;;;;;;;4.80;4.40;;;21.00;18.90;;;;;;5018909;28;20187;-59
2021/03/02 04:49:29;;;;;;;3.37;3.07;;;21.00;18.90;;;;;;5036448;28;20160;-58
2021/03/02 04:51:54;;;;;;;4.53;4.13;;;21.00;18.90;;;;;;5036043;28;20195;-58
2021/03/02 04:54:20;;;;;;;3.63;3.33;;;21.00;18.90;;;;;;5035674;28;20190;-59
2021/03/02 04:56:46;;;;;;;3.93;3.50;;;21.00;18.90;;;;;;5036078;28;20198;-59
2021/03/02 04:59:11;;;;;;;4.37;3.60;;;21.00;18.90;;;;;;5036168;28;20167;-59
2021/03/02 05:01:42;;;;;;;3.70;3.40;;;21.00;18.90;;;;;;5036450;28;20203;-59
2021/03/02 05:04:07;;;;;;;4.28;3.90;;;21.00;18.90;;;;;;5036108;28;20239;-59
2021/03/02 05:06:33;;;;;;;3.73;3.43;;;21.00;18.90;;;;;;5036087;28;20202;-59
2021/03/02 05:08:59;;;;;;;3.80;3.50;;;21.00;18.90;;;;;;5035495;28;20186;-59
2021/03/02 05:11:27;;;;;;;4.57;3.87;;;21.00;18.90;;;;;;5036033;28;20164;-59
2021/03/02 05:13:52;;;;;;;4.18;3.80;;;21.00;18.90;;;;;;5035809;28;20156;-59
2021/03/02 05:16:18;;;;;;;5.87;3.87;;;21.00;19.00;;;;;;5035721;28;20234;-59
2021/03/02 05:18:46;;;;;;;3.60;3.30;;;21.00;19.00;;;;;;5035748;28;20164;-58
2021/03/02 05:21:12;;;;;;;4.28;3.88;;;21.00;19.00;;;;;;5035972;28;20168;-58
2021/03/02 05:23:40;;;;;;;3.87;3.50;;;21.00;19.00;;;;;;5035076;28;20160;-58
2021/03/02 05:26:05;;;;;;;4.07;3.75;;;21.00;19.00;;;;;;5035011;28;20160;-58
2021/03/02 05:28:33;;;;;;;4.20;3.83;;;21.00;19.00;;;;;;5035617;28;20278;-59
2021/03/02 05:31:06;;;;;;;4.03;3.72;;;21.00;19.00;;;;;;5035761;28;20240;-59
2021/03/02 05:33:32;;;;;;;3.72;3.42;;;20.90;19.00;;;;;;5035366;28;20164;-58
2021/03/02 05:36:00;;;;;;;3.90;3.60;;;20.90;19.00;;;;;;5035543;28;20188;-60
2021/03/02 05:38:25;;;;;;;3.38;3.08;;;20.90;19.00;;;;;;5034860;28;20167;-59
2021/03/02 05:40:53;;;;;;;4.33;3.93;;;20.90;19.00;;;;;;5035391;28;20159;-59
2021/03/02 05:43:19;;;;;;;3.75;3.33;;;20.90;19.00;;;;;;5035087;28;20730;-59
2021/03/02 05:45:47;;;;;;;3.63;3.33;;;20.90;19.60;;;;;;5035436;28;20172;-60
2021/03/02 05:48:20;;;;;;;3.70;3.40;;;20.90;19.00;;;;;;5035192;28;20226;-60
2021/03/02 05:50:46;;;;;;;3.40;3.10;;;20.90;19.10;;;;;;5035498;28;20279;-59
2021/03/02 05:53:11;;;;;;;3.97;3.60;;;20.90;19.10;;;;;;5034552;28;20184;-58
2021/03/02 05:55:38;;;;;;;3.77;3.40;;;20.90;19.10;;;;;;5034947;28;20604;-59
2021/03/02 05:58:07;;;;;;;3.92;3.63;;;20.90;19.10;;;;;;5035055;28;20294;-59
2021/03/02 06:00:33;;;;;;;4.50;4.10;;;20.90;19.10;;;;;;5035018;28;20627;-59
2021/03/02 06:03:06;;;;;;;3.60;3.30;;;20.90;19.10;;;;;;5035154;28;20160;-59
2021/03/02 06:05:34;;;;;;;3.75;3.45;;;20.90;19.70;;;;;;5035169;28;20160;-58
2021/03/02 06:08:02;;;;;;;4.20;3.80;;;20.90;18.60;;;;;;5034368;28;20209;-59
2021/03/02 06:10:32;;;;;;;4.00;3.60;;;20.90;19.10;;;;;;5034910;28;20164;-60
2021/03/02 06:12:59;;;;;;;3.85;3.55;;;20.90;19.10;;;;;;5035144;28;20168;-54
2021/03/02 06:15:26;;;;;;;4.00;3.70;;;20.90;19.10;;;;;;5034615;28;20242;-55
2021/03/02 06:18:22;;;;;;;3.05;2.85;;;20.90;19.10;;;;;;5034674;28;20187;-54
2021/03/02 06:20:49;;;;;;;4.15;3.80;;;20.90;19.10;;;;;;5022023;28;20218;-54
2021/03/02 06:23:30;;;;;;;3.75;3.35;;;20.80;19.00;;;;;;5034182;28;20168;-55
2021/03/02 06:26:13;;;;;;;3.95;3.60;;;20.90;19.10;;;;;;5034593;28;20183;-54
2021/03/02 06:28:44;;;;;;;3.95;3.65;;;20.90;19.10;;;;;;5034332;28;20160;-54
2021/03/02 06:31:40;;;;;;;3.38;3.08;;;20.90;19.10;;;;;;5034257;28;20163;-55
2021/03/02 06:34:08;;;;;;;3.92;3.60;;;20.90;19.10;;;;;;5034103;28;20156;-54
2021/03/02 06:36:34;;;;;;;4.35;3.95;;;20.90;19.10;;;;;;5033947;28;20190;-55
2021/03/02 06:39:20;;;;;;;4.38;3.97;;;20.90;19.10;;;;;;5033784;28;20159;-54
2021/03/02 06:41:46;;;;;;;3.95;3.65;;;20.90;19.10;;;;;;5034092;28;20611;-55
2021/03/02 06:44:13;;;;;;;3.53;3.20;;;20.90;19.10;;;;;;5034145;28;20214;-55
2021/03/02 06:46:39;;;;;;;3.67;3.38;;;20.90;19.10;;;;;;5033886;28;20164;-55
2021/03/02 06:49:05;;;;;;;3.60;3.30;;;20.90;19.10;;;;;;5033981;28;20160;-55
2021/03/02 06:51:39;;;;;;;3.50;3.20;;;20.90;19.10;;;;;;5033744;28;20242;-55
2021/03/02 06:54:17;;;;;;;3.70;3.40;;;20.90;19.10;;;;;;5033423;28;20171;-55
2021/03/02 06:56:46;;;;;;;4.03;3.60;;;20.90;19.10;;;;;;5033769;28;20184;-55
2021/03/02 06:59:22;;;;;;;3.40;3.20;;;20.90;19.40;;;;;;5016064;28;20167;-55
2021/03/02 07:01:48;;;;;;;3.92;3.58;;;20.90;19.10;;;;;;5033686;28;20190;-55
2021/03/02 07:04:21;;;;;;;4.60;3.50;;;20.90;19.10;;;;;;5033572;28;20159;-55
2021/03/02 07:06:51;;;;;;;4.32;3.92;;;20.90;19.10;;;;;;5033511;28;20178;-55
2021/03/02 07:09:18;;;;;;;2.85;2.65;;;20.90;19.10;;;;;;5033014;28;20195;-54
2021/03/02 07:11:45;;;;;;;3.35;3.05;;;20.90;19.10;;;;;;5033189;28;20175;-54
2021/03/02 07:14:17;;;;;;;4.22;3.92;;;20.90;19.00;;;;;;5033363;28;20155;-54
2021/03/02 07:16:45;;;;;;;3.50;3.20;;;20.90;19.00;;;;;;5032991;28;20301;-54
2021/03/02 07:19:17;;;;;;;4.03;3.72;;;21.00;19.10;;;;;;5033101;28;20148;-55
2021/03/02 07:21:46;;;;;;;3.45;3.15;;;21.00;19.10;;;;;;5015486;28;20595;-54
2021/03/02 07:24:13;;;;;;;2.97;2.78;;;20.90;19.00;;;;;;5032790;28;20164;-55
2021/03/02 07:26:46;;;;;;;4.25;3.30;;;21.00;19.10;;;;;;5033403;28;20183;-55
2021/03/02 07:29:12;;;;;;;2.85;2.65;;;21.00;19.00;;;;;;5015667;28;20175;-55
2021/03/02 07:31:39;;;;;;;3.30;3.00;;;21.00;19.00;;;;;;5033287;28;20665;-55
2021/03/02 07:34:07;;;;;;;3.38;3.10;;;21.00;19.00;;;;;;5033041;28;20584;-54
2021/03/02 07:36:43;;;;;;;3.50;3.22;;;21.00;19.00;;;;;;5033158;28;20192;-54
2021/03/02 07:39:29;;;;;;;3.25;3.05;;;21.00;19.00;;;;;;5032753;28;20163;-55
2021/03/02 07:41:57;;;;;;;3.58;3.28;;;21.00;19.00;;;;;;5032622;28;20183;-54
2021/03/02 07:44:23;;;;;;;3.45;3.15;;;21.00;19.00;;;;;;5033388;28;20168;-54
2021/03/02 07:46:56;;;;;;;4.10;3.78;;;20.00;18.30;;;;;;5032939;28;20191;-54
2021/03/02 07:49:22;;;;;;;3.33;3.05;;;21.00;18.90;;;;;;5033878;28;20606;-55
2021/03/02 07:51:57;;;;;;;4.17;2.90;;;21.00;19.00;;;;;;5037147;28;20614;-55
2021/03/02 07:54:23;;;;;;;3.90;2.95;;;21.00;19.00;;;;;;5036599;28;20161;-55
2021/03/02 07:56:49;;;;;;;3.10;2.80;;;21.00;19.10;;;;;;5002974;28;20183;-55
2021/03/02 07:59:17;;;;;;;3.30;2.80;;;21.00;19.20;;;;;;5036483;28;20280;-54
2021/03/02 08:01:43;;;;;;;2.80;2.15;;;21.00;19.30;;;;;;5025633;28;20472;-55
2021/03/02 08:04:25;;;;;;;3.50;3.20;;;21.00;19.40;;;;;;5020501;28;20186;-54
2021/03/02 08:06:51;;;;;;;2.75;2.30;;;20.90;19.40;;;;;;5033766;28;20179;-54
2021/03/02 08:09:25;;;;;;;2.23;2.03;;;20.90;19.50;;;;;;5033480;28;20657;-55
2021/03/02 08:11:54;;;;;;;2.78;2.58;;;20.90;19.50;;;;;;5036514;28;20167;-55
2021/03/02 08:14:25;;;;;;;3.35;3.08;;;20.90;19.60;;;;;;5027475;28;20167;-54
2021/03/02 08:16:56;;;;;;;2.35;2.15;;;20.90;19.60;;;;;;5035621;28;20211;-55
2021/03/02 08:19:38;;;;;;;4.35;2.50;;;20.90;19.70;;;;;;5035846;28;20160;-55
2021/03/02 08:22:19;;;;;;;3.03;2.80;;;20.90;19.70;;;;;;5034933;28;20258;-56
2021/03/02 08:24:58;;;;;;;2.60;2.40;;;20.90;19.70;;;;;;5036362;28;20461;-55
2021/03/02 08:27:44;;;;;;;3.33;3.03;;;20.90;19.70;;;;;;5035430;28;20171;-54
2021/03/02 08:30:12;;;;;;;3.55;2.15;;;20.90;19.70;;;;;;5034902;28;20171;-55
2021/03/02 08:32:40;;;;;;;2.53;2.30;;;20.90;19.80;;;;;;5018197;28;20527;-55
2021/03/02 08:35:11;;;;;;;2.63;2.42;;;20.90;19.80;;;;;;5035320;28;20191;-55
2021/03/02 08:37:49;;;;;;;3.15;2.85;;;20.90;19.80;;;;;;5034932;28;20171;-55
2021/03/02 08:40:31;;;;;;;3.30;2.60;;;20.90;19.80;;;;;;5035725;28;20183;-54
2021/03/02 08:43:07;;;;;;;3.53;3.22;;;20.90;19.70;;;;;;5016164;28;20214;-54
2021/03/02 08:45:45;;;;;;;3.25;2.95;;;20.80;19.70;;;;;;5016415;28;20192;-54
2021/03/02 08:48:17;;;;;;;4.03;2.90;;;20.80;19.70;;;;;;5029983;28;20270;-55
2021/03/02 08:50:44;;;;;;;3.95;3.60;;;20.80;19.70;;;;;;5035339;28;20176;-55
2021/03/02 08:53:28;;;;;;;3.50;3.20;;;20.90;19.80;;;;;;5034329;28;20183;-55
2021/03/02 08:55:57;;;;;;;3.50;3.20;;;20.80;19.80;;;;;;5035681;28;20187;-55
2021/03/02 08:58:27;;;;;;;3.17;2.85;;;20.80;19.80;;;;;;5035359;28;20179;-54
2021/03/02 09:01:03;;;;;;;3.20;2.90;;;20.90;19.90;;;;;;5033553;28;20175;-53
2021/03/02 09:03:29;;;;;;;3.40;2.63;;;20.90;20.00;;;;;;5016260;28;20171;-55
2021/03/02 09:06:09;;;;;;;3.03;2.75;;;20.90;20.00;;;;;;5035695;28;20634;-54
2021/03/02 09:08:41;;;;;;;3.67;2.85;;;20.90;20.00;;;;;;5034762;28;20389;-55
2021/03/02 09:11:07;;;;;;;3.97;3.03;;;20.90;20.00;;;;;;5035117;28;20175;-54
2021/03/02 09:13:38;;;;;;;3.13;2.83;;;20.90;20.00;;;;;;5034748;28;20614;-55
2021/03/02 09:16:28;;;;;;;3.33;3.03;;;21.00;20.10;;;;;;5016931;28;20448;-55
2021/03/02 09:19:03;;;;;;;3.20;2.90;;;21.20;20.30;;;;;;5035345;28;20152;-56
2021/03/02 09:21:32;;;;;;;3.25;2.92;;;21.50;20.10;;;;;;5035019;28;20317;-56
2021/03/02 09:23:58;;;;;;;3.17;2.92;;;21.70;19.90;;;;;;5034789;28;20156;-58
2021/03/02 09:26:26;;;;;;;3.45;2.90;;;21.90;20.20;;;;;;5035273;28;20208;-56
2021/03/02 09:29:00;;;;;;;3.70;3.40;;;22.20;19.40;;;;;;5034665;28;20179;-56
2021/03/02 09:31:29;;;;;;;4.78;3.22;;;22.40;19.20;;;;;;5032824;28;20163;-56
2021/03/02 09:33:55;;;;;;;2.53;2.35;;;22.60;18.40;;;;;;5035135;28;20163;-55
2021/03/02 09:36:24;;;;;;;2.75;2.55;;;;;;;;;;5034349;28;20703;-56
2021/03/02 09:38:50;;;;;;;2.95;2.75;;;22.90;17.70;;;;;;5033456;28;20164;-56
2021/03/02 09:41:37;;;;;;;3.70;2.88;;;23.00;18.30;;;;;;5016857;28;20176;-54
2021/03/02 09:44:21;;;;;;;3.03;2.70;;;23.10;18.30;;;;;;5034482;28;20163;-55
2021/03/02 09:46:48;;;;;;;2.90;2.70;;;23.10;18.10;;;;;;5034622;28;20176;-55
2021/03/02 09:49:40;;;;;;;2.22;2.10;;;23.10;18.10;;;;;;5034502;28;20198;-55
2021/03/02 09:52:23;;;;;;;2.63;2.42;;;23.10;18.10;;;;;;5034096;28;20207;-55
2021/03/02 09:55:12;;;;;;;3.13;2.83;;;23.10;18.40;;;;;;5029936;28;20193;-55
2021/03/02 09:57:50;;;;;;;3.50;3.05;;;23.10;18.20;;;;;;5033841;28;20179;-53
2021/03/02 10:00:17;;;;;;;3.17;2.88;;;23.10;18.50;;;;;;5034079;28;20243;-54
2021/03/02 10:02:57;;;;;;;4.03;2.25;;;23.10;17.60;;;;;;5034513;28;20206;-54
2021/03/02 10:05:32;;;;;;;2.80;2.50;;;23.00;17.60;;;;;;5034490;28;20243;-54
2021/03/02 10:07:59;;;;;;;2.78;2.30;;;23.00;18.20;;;;;;5034134;28;20151;-55
2021/03/02 10:10:41;;;;;;;2.75;2.47;;;23.00;18.20;;;;;;5033423;28;20683;-55
2021/03/02 10:13:06;;;;;;;3.20;2.25;;;23.00;18.20;;;;;;5033966;28;20172;-55
2021/03/02 10:15:35;;;;;;;2.83;2.63;;;23.00;18.20;;;;;;5033737;28;20230;-57
2021/03/02 10:18:03;;;;;;;3.42;2.60;;;23.00;18.20;;;;;;5034091;28;20156;-55
2021/03/02 10:20:32;;;;;;;2.97;2.75;;;23.00;18.20;;;;;;5033632;28;20188;-55
2021/03/02 10:23:06;;;;;;;4.53;2.92;;;23.00;18.20;;;;;;5033700;28;20227;-56
2021/03/02 10:25:41;;;;;;;3.60;2.75;;;23.10;18.40;;;;;;5033774;28;20152;-56
2021/03/02 10:28:07;;;;;;;2.67;2.38;;;23.10;18.30;;;;;;5034168;28;20644;-55
2021/03/02 10:30:36;;;;;;;3.33;2.20;;;23.10;18.30;;;;;;5033345;28;20319;-56
2021/03/02 10:33:04;;;;;;;3.58;3.25;;;23.20;18.40;;;;;;5034070;28;20210;-56
2021/03/02 10:35:29;;;;;;;2.88;2.65;;;23.20;18.40;;;;;;5033938;28;20244;-54
2021/03/02 10:37:58;;;;;;;2.50;2.30;;;23.20;18.40;;;;;;5028410;28;20199;-57
2021/03/02 10:40:26;;;;;;;3.10;2.90;;;23.30;18.40;;;;;;5021503;28;20187;-56
2021/03/02 10:42:52;;;;;;;5.40;4.90;;;23.30;18.40;;;;;;5013058;28;20467;-56
2021/03/02 10:45:17;;;;;;;6.47;5.87;;;23.30;17.00;;;;;;5017396;28;20263;-55
2021/03/02 10:47:44;;;;;;;7.37;6.67;;;23.30;16.30;;;;;;5023689;28;20207;-56
2021/03/02 10:50:10;;;;;;;7.60;6.85;;;23.30;15.80;;;;;;5014464;28;20666;-56
2021/03/02 10:52:36;;;;;;;6.38;5.78;;;23.30;15.30;;;;;;5022175;28;20201;-55
2021/03/02 10:55:05;;;;;;;6.43;5.73;;;23.30;15.30;;;;;;5027953;28;20180;-56
2021/03/02 10:57:34;;;;;;;6.47;5.93;;;23.30;15.20;;;;;;5024829;28;20536;-56
2021/03/02 10:59:59;;;;;;;5.95;5.32;;;23.30;15.10;;;;;;5020592;28;20180;-56
2021/03/02 11:02:25;;;;;;;6.07;5.60;;;23.30;14.90;;;;;;5022088;28;20513;-56
2021/03/02 11:04:53;;;;;;;6.87;6.33;;;23.30;14.90;;;;;;5026674;28;20205;-57
2021/03/02 11:07:19;;;;;;;7.80;6.50;;;23.30;14.40;;;;;;5030248;28;20163;-56
2021/03/02 11:09:44;;;;;;;6.80;6.20;;;23.30;14.40;;;;;;5023547;28;20183;-56
2021/03/02 11:12:10;;;;;;;6.70;6.10;;;23.30;14.40;;;;;;5025453;28;20635;-56
2021/03/02 11:14:36;;;;;;;7.07;6.40;;;23.30;14.40;;;;;;5009473;28;20250;-57
2021/03/02 11:17:02;;;;;;;6.53;5.83;;;23.30;14.40;;;;;;5025099;28;20307;-57
2021/03/02 11:19:27;;;;;;;7.03;6.33;;;23.40;14.40;;;;;;5024481;28;20168;-56
2021/03/02 11:21:53;;;;;;;7.97;6.50;;;23.40;14.00;;;;;;5018643;28;20441;-56
2021/03/02 11:24:22;;;;;;;5.73;5.23;;;23.30;14.00;;;;;;5019681;28;20180;-57
2021/03/02 11:26:49;;;;;;;5.60;5.10;;;23.40;14.40;;;;;;5023562;28;20187;-57
2021/03/02 11:29:15;;;;;;;5.22;4.72;;;23.40;14.40;;;;;;5021999;28;20724;-58
2021/03/02 11:31:44;;;;;;;6.23;4.60;;;23.50;14.50;;;;;;5018300;28;20180;-58
2021/03/02 11:34:12;;;;;;;7.82;4.82;;;23.50;14.60;;;;;;4999812;28;20206;-58
2021/03/02 11:36:38;;;;;;;6.10;4.95;;;23.60;14.60;;;;;;5022929;28;20224;-58
2021/03/02 11:39:04;;;;;;;5.03;4.27;;;23.60;14.60;;;;;;5024944;28;20171;-58
2021/03/02 11:41:32;;;;;;;5.30;4.80;;;23.60;14.60;;;;;;5029017;28;20281;-57
2021/03/02 11:43:58;;;;;;;3.97;3.67;;;23.60;14.60;;;;;;5029503;28;20513;-56
2021/03/02 11:46:23;;;;;;;5.47;4.60;;;23.70;14.70;;;;;;5018381;28;20266;-57
2021/03/02 11:48:49;;;;;;;4.83;4.43;;;23.70;15.40;;;;;;5027732;28;20207;-57
2021/03/02 11:51:17;;;;;;;4.50;4.10;;;23.70;14.90;;;;;;5023651;28;20187;-57
2021/03/02 11:53:44;;;;;;;5.47;4.13;;;23.70;14.90;;;;;;5026433;28;20188;-58
2021/03/02 11:56:09;;;;;;;4.20;3.80;;;23.70;14.90;;;;;;5003493;28;20215;-57
2021/03/02 11:58:35;;;;;;;4.90;3.70;;;23.80;15.10;;;;;;5024392;28;20179;-57
2021/03/02 12:01:00;;;;;;;3.70;3.40;;;23.80;15.10;;;;;;5022123;28;20191;-57
2021/03/02 12:03:26;;;;;;;5.20;4.23;;;23.80;15.10;;;;;;5021224;28;20185;-57
2021/03/02 12:05:53;;;;;;;4.53;4.13;;;23.90;15.30;;;;;;5009242;28;20504;-57
2021/03/02 12:08:20;;;;;;;4.15;3.85;;;23.90;15.20;;;;;;5021049;28;20168;-57
2021/03/02 12:10:45;;;;;;;4.80;4.05;;;23.90;15.30;;;;;;5024101;28;20191;-57
2021/03/02 12:13:11;;;;;;;4.03;3.63;;;23.90;15.30;;;;;;5023258;28;20180;-57
2021/03/02 12:15:37;;;;;;;4.72;4.22;;;23.90;15.60;;;;;;5013991;28;20215;-56
2021/03/02 12:18:03;;;;;;;4.30;3.90;;;24.00;15.40;;;;;;5030669;28;20187;-57
2021/03/02 12:20:29;;;;;;;3.80;3.50;;;24.00;15.30;;;;;;5024483;28;20635;-57
2021/03/02 12:22:55;;;;;;;4.17;3.77;;;;;;;;;;5024222;28;20413;-56
2021/03/02 12:25:20;;;;;;;4.60;3.83;;;24.00;15.00;;;;;;5016431;28;20187;-57
2021/03/02 12:27:48;;;;;;;6.03;4.23;;;24.00;15.50;;;;;;5014956;28;20640;-57
2021/03/02 12:30:17;;;;;;;4.70;4.10;;;24.00;15.50;;;;;;5020289;28;20195;-57
2021/03/02 12:32:43;;;;;;;5.05;3.78;;;24.00;15.50;;;;;;5016474;28;20254;-58
2021/03/02 12:35:12;;;;;;;3.30;3.00;;;24.10;15.60;;;;;;5025529;28;20674;-56
2021/03/02 12:37:38;;;;;;;4.10;3.70;;;24.10;15.60;;;;;;5028033;28;20179;-57
2021/03/02 12:40:04;;;;;;;5.23;3.30;;;24.10;15.60;;;;;;5026957;28;20255;-58
2021/03/02 12:42:30;;;;;;;6.30;3.78;;;24.10;15.70;;;;;;5030029;28;20262;-57
2021/03/02 12:44:56;;;;;;;4.60;3.10;;;24.10;15.80;;;;;;5026576;28;20271;-57
2021/03/02 12:47:21;;;;;;;4.37;3.97;;;24.10;15.70;;;;;;5016683;28;20172;-57
2021/03/02 12:49:47;;;;;;;4.13;3.30;;;24.10;15.70;;;;;;5023536;28;20635;-57
2021/03/02 12:52:13;;;;;;;5.00;4.03;;;24.10;15.80;;;;;;5031310;28;20651;-57
2021/03/02 12:54:42;;;;;;;5.27;4.10;;;24.20;15.80;;;;;;5025701;28;20246;-57
2021/03/02 12:57:11;;;;;;;5.13;4.63;;;24.20;15.70;;;;;;5020598;28;20283;-58
2021/03/02 12:59:36;;;;;;;7.60;4.00;;;24.20;15.70;;;;;;5026608;28;20168;-60